createdAt,value
2019-01-11T00:01:14.249Z,0.00
2019-01-11T00:02:15.206Z,0.00
2019-01-11T00:04:07.603Z,0.00
2019-01-11T00:05:06.796Z,0.00
2019-01-11T00:07:01.082Z,0.00
2019-01-11T00:08:00.471Z,0.00
2019-01-11T00:09:53.417Z,0.00
2019-01-11T00:10:54.246Z,0.00
2019-01-11T00:11:53.905Z,0.00
2019-01-11T00:12:53.875Z,0.00
2019-01-11T00:13:53.307Z,0.00
2019-01-11T00:14:54.250Z,0.00
2019-01-11T00:15:52.671Z,0.00
2019-01-11T00:16:52.436Z,0.00
2019-01-11T00:17:53.659Z,0.00
2019-01-11T00:18:52.063Z,0.00
2019-01-11T00:19:51.982Z,0.00
2019-01-11T00:20:51.960Z,0.00
2019-01-11T00:21:51.908Z,0.00
2019-01-11T00:22:51.862Z,0.00
2019-01-11T00:23:51.809Z,0.00
2019-01-11T00:24:51.777Z,0.00
2019-01-11T00:25:51.716Z,0.00
2019-01-11T00:26:51.669Z,0.00
2019-01-11T00:27:51.651Z,0.00
2019-01-11T00:28:51.560Z,0.00
2019-01-11T00:29:51.529Z,0.00
2019-01-11T00:30:51.469Z,0.00
2019-01-11T00:31:51.442Z,0.00
2019-01-11T00:32:51.605Z,0.00
2019-01-11T00:33:51.356Z,0.00
2019-01-11T00:34:51.294Z,0.00
2019-01-11T00:35:51.242Z,0.00
2019-01-11T00:36:51.187Z,0.00
2019-01-11T00:37:51.174Z,0.00
2019-01-11T00:38:51.083Z,0.00
2019-01-11T00:39:51.084Z,0.00
2019-01-11T00:40:51.026Z,0.00
2019-01-11T00:41:50.939Z,0.00
2019-01-11T00:42:50.912Z,0.00
2019-01-11T00:43:50.849Z,0.00
2019-01-11T00:44:50.821Z,0.00
2019-01-11T00:45:50.770Z,0.00
2019-01-11T00:46:50.738Z,0.00
2019-01-11T00:47:50.658Z,0.00
2019-01-11T00:48:51.804Z,0.00
2019-01-11T00:49:50.575Z,0.00
2019-01-11T00:50:50.549Z,0.00
2019-01-11T00:51:50.506Z,0.00
2019-01-11T00:52:50.432Z,0.00
2019-01-11T00:53:50.394Z,0.00
2019-01-11T00:54:50.363Z,0.00
2019-01-11T00:55:50.335Z,0.00
2019-01-11T00:56:50.283Z,0.00
2019-01-11T00:57:50.298Z,0.00
2019-01-11T00:58:50.170Z,0.00
2019-01-11T00:59:50.084Z,0.00
2019-01-11T01:00:50.038Z,0.00
2019-01-11T01:01:50.046Z,0.00
2019-01-11T01:02:49.960Z,0.00
2019-01-11T01:03:49.919Z,0.00
2019-01-11T01:04:49.877Z,0.00
2019-01-11T01:05:49.821Z,0.00
2019-01-11T01:06:49.779Z,0.00
2019-01-11T01:07:49.743Z,0.00
2019-01-11T01:08:49.703Z,0.00
2019-01-11T01:09:49.641Z,0.00
2019-01-11T01:10:49.582Z,0.00
2019-01-11T01:11:49.524Z,0.00
2019-01-11T01:12:49.475Z,0.00
2019-01-11T01:13:49.483Z,0.00
2019-01-11T01:14:49.405Z,0.00
2019-01-11T01:15:49.354Z,0.00
2019-01-11T01:16:49.307Z,0.00
2019-01-11T01:17:49.271Z,0.00
2019-01-11T01:18:49.237Z,0.00
2019-01-11T01:19:49.148Z,0.00
2019-01-11T01:20:49.137Z,0.00
2019-01-11T01:21:49.071Z,0.00
2019-01-11T01:23:24.873Z,0.00
2019-01-11T01:23:48.977Z,0.00
2019-01-11T01:24:48.934Z,0.00
2019-01-11T01:25:48.884Z,0.00
2019-01-11T01:26:48.831Z,0.00
2019-01-11T01:27:48.770Z,0.00
2019-01-11T01:28:48.735Z,0.00
2019-01-11T01:29:48.676Z,0.00
2019-01-11T01:30:48.636Z,0.00
2019-01-11T01:31:48.588Z,0.00
2019-01-11T01:34:21.335Z,0.00
2019-01-11T01:35:22.019Z,0.00
2019-01-11T01:37:14.274Z,0.00
2019-01-11T01:38:13.564Z,0.00
2019-01-11T01:40:07.754Z,0.00
2019-01-11T01:41:08.183Z,0.00
2019-01-11T01:43:00.957Z,0.00
2019-01-11T01:43:59.405Z,0.00
2019-01-11T01:45:55.695Z,0.00
2019-01-11T01:46:54.079Z,0.00
2019-01-11T01:48:47.121Z,0.00
2019-01-11T01:49:48.049Z,0.00
2019-01-11T01:51:40.572Z,0.00
2019-01-11T01:52:39.589Z,0.00
2019-01-11T01:54:33.773Z,0.00
2019-01-11T01:55:32.651Z,0.00
2019-01-11T01:57:27.025Z,0.00
2019-01-11T01:58:27.461Z,0.00
2019-01-11T02:00:20.971Z,0.00
2019-01-11T02:01:20.357Z,0.00
2019-01-11T02:03:15.213Z,0.00
2019-01-11T02:04:14.394Z,0.00
2019-01-11T02:06:06.875Z,0.00
2019-01-11T02:07:06.128Z,0.00
2019-01-11T02:08:59.358Z,0.00
2019-01-11T02:09:59.045Z,0.00
2019-01-11T02:11:53.324Z,0.00
2019-01-11T02:12:52.752Z,0.00
2019-01-11T02:14:47.825Z,0.00
2019-01-11T02:15:48.023Z,0.00
2019-01-11T02:17:40.444Z,0.00
2019-01-11T02:18:39.319Z,0.00
2019-01-11T02:20:34.324Z,0.00
2019-01-11T02:21:33.853Z,0.00
2019-01-11T02:23:26.885Z,0.00
2019-01-11T02:24:26.908Z,0.00
2019-01-11T02:26:19.539Z,0.00
2019-01-11T02:27:18.202Z,0.00
2019-01-11T02:29:12.015Z,0.00
2019-01-11T02:30:12.406Z,0.00
2019-01-11T02:32:05.428Z,0.00
2019-01-11T02:33:04.115Z,0.00
2019-01-11T02:34:59.455Z,0.00
2019-01-11T02:35:59.323Z,0.00
2019-01-11T02:37:53.051Z,0.00
2019-01-11T02:38:52.263Z,0.00
2019-01-11T02:40:45.810Z,0.00
2019-01-11T02:41:44.587Z,0.00
2019-01-11T02:43:38.270Z,0.00
2019-01-11T02:44:38.714Z,0.00
2019-01-11T02:46:30.712Z,0.00
2019-01-11T02:47:31.934Z,0.00
2019-01-11T02:49:26.260Z,0.00
2019-01-11T02:50:25.907Z,0.00
2019-01-11T02:52:19.186Z,0.00
2019-01-11T02:53:18.837Z,0.00
2019-01-11T02:55:12.166Z,0.00
2019-01-11T02:56:10.793Z,0.00
2019-01-11T02:58:04.509Z,0.00
2019-01-11T02:59:04.494Z,0.00
2019-01-11T03:00:57.733Z,0.00
2019-01-11T03:01:56.955Z,0.00
2019-01-11T03:03:50.469Z,0.00
2019-01-11T03:04:51.453Z,0.00
2019-01-11T03:06:44.434Z,0.00
2019-01-11T03:07:43.336Z,0.00
2019-01-11T03:09:49.749Z,0.00
2019-01-11T03:10:49.124Z,0.00
2019-01-11T03:12:41.758Z,0.00
2019-01-11T03:13:41.435Z,0.00
2019-01-11T03:15:47.720Z,0.00
2019-01-11T03:16:45.681Z,0.00
2019-01-11T03:18:40.760Z,0.00
2019-01-11T03:19:39.413Z,0.00
2019-01-11T03:21:44.191Z,0.00
2019-01-11T03:22:43.977Z,0.00
2019-01-11T03:24:39.008Z,0.00
2019-01-11T03:25:38.367Z,0.00
2019-01-11T03:27:32.760Z,0.00
2019-01-11T03:28:32.911Z,0.00
2019-01-11T03:30:25.697Z,0.00
2019-01-11T03:31:24.372Z,0.00
2019-01-11T03:33:18.090Z,0.00
2019-01-11T03:34:18.335Z,0.00
2019-01-11T03:36:11.620Z,0.00
2019-01-11T03:37:11.262Z,0.00
2019-01-11T03:39:04.550Z,0.00
2019-01-11T03:40:03.932Z,0.00
2019-01-11T03:41:57.479Z,0.00
2019-01-11T03:42:55.974Z,0.00
2019-01-11T03:44:51.011Z,0.00
2019-01-11T03:45:50.656Z,0.00
2019-01-11T03:47:43.873Z,0.00
2019-01-11T03:48:43.584Z,0.00
2019-01-11T03:50:37.922Z,0.00
2019-01-11T03:51:37.284Z,0.00
2019-01-11T03:53:30.526Z,0.00
2019-01-11T03:54:29.421Z,0.00
2019-01-11T03:56:23.293Z,0.00
2019-01-11T03:57:23.509Z,0.00
2019-01-11T03:59:16.758Z,0.00
2019-01-11T04:00:16.693Z,0.00
2019-01-11T04:02:09.957Z,0.00
2019-01-11T04:03:09.427Z,0.00
2019-01-11T04:05:04.192Z,0.00
2019-01-11T04:06:04.365Z,0.00
2019-01-11T04:07:57.145Z,0.00
2019-01-11T04:08:57.327Z,0.00
2019-01-11T04:10:49.624Z,0.00
2019-01-11T04:11:49.056Z,0.00
2019-01-11T04:13:43.067Z,0.00
2019-01-11T04:14:41.854Z,0.00
2019-01-11T04:16:36.019Z,0.00
2019-01-11T04:17:34.668Z,0.00
2019-01-11T04:19:29.549Z,0.00
2019-01-11T04:20:29.412Z,0.00
2019-01-11T04:22:23.482Z,0.00
2019-01-11T04:23:23.375Z,0.00
2019-01-11T04:25:16.630Z,0.00
2019-01-11T04:26:15.089Z,0.00
2019-01-11T04:28:09.082Z,0.00
2019-01-11T04:29:09.570Z,0.00
2019-01-11T04:31:02.499Z,0.00
2019-01-11T04:32:02.020Z,0.00
2019-01-11T04:33:55.323Z,0.00
2019-01-11T04:34:54.694Z,0.00
2019-01-11T04:36:48.430Z,0.00
2019-01-11T04:37:48.436Z,0.00
2019-01-11T04:39:54.055Z,0.00
2019-01-11T04:40:52.779Z,0.00
2019-01-11T04:42:46.325Z,0.00
2019-01-11T04:43:45.993Z,0.00
2019-01-11T04:45:52.222Z,0.00
2019-01-11T04:46:52.057Z,0.00
2019-01-11T04:48:46.511Z,0.00
2019-01-11T04:49:44.780Z,0.00
2019-01-11T04:51:39.629Z,0.00
2019-01-11T04:52:37.635Z,0.00
2019-01-11T04:54:32.413Z,0.00
2019-01-11T04:55:31.244Z,0.00
2019-01-11T04:57:25.332Z,0.00
2019-01-11T04:58:25.259Z,0.00
2019-01-11T05:00:17.982Z,0.00
2019-01-11T05:01:16.531Z,0.00
2019-01-11T05:03:11.381Z,0.00
2019-01-11T05:04:10.957Z,0.00
2019-01-11T05:06:04.286Z,0.00
2019-01-11T05:07:02.468Z,0.00
2019-01-11T05:08:58.225Z,0.00
2019-01-11T05:09:57.185Z,0.00
2019-01-11T05:11:51.731Z,0.00
2019-01-11T05:12:50.186Z,0.00
2019-01-11T05:14:44.147Z,0.00
2019-01-11T05:15:43.326Z,0.00
2019-01-11T05:17:37.054Z,0.00
2019-01-11T05:18:35.875Z,0.00
2019-01-11T05:20:31.734Z,0.00
2019-01-11T05:21:30.278Z,0.00
2019-01-11T05:23:24.993Z,0.00
2019-01-11T05:24:24.310Z,0.00
2019-01-11T05:26:17.429Z,0.00
2019-01-11T05:27:17.633Z,0.00
2019-01-11T05:29:11.834Z,0.00
2019-01-11T05:30:12.796Z,0.00
2019-01-11T05:32:05.890Z,0.00
2019-01-11T05:33:04.516Z,0.00
2019-01-11T05:34:57.962Z,0.00
2019-01-11T05:35:57.088Z,0.00
2019-01-11T05:37:51.201Z,0.00
2019-01-11T05:38:49.990Z,0.00
2019-01-11T05:40:46.215Z,0.00
2019-01-11T05:41:45.867Z,0.00
2019-01-11T05:43:38.658Z,0.00
2019-01-11T05:44:37.476Z,0.00
2019-01-11T05:46:32.210Z,0.00
2019-01-11T05:47:31.762Z,0.00
2019-01-11T05:49:24.738Z,0.00
2019-01-11T05:50:24.388Z,0.00
2019-01-11T05:52:17.721Z,0.00
2019-01-11T05:53:17.718Z,0.00
2019-01-11T05:55:11.090Z,0.00
2019-01-11T05:56:10.665Z,0.00
2019-01-11T05:58:05.519Z,0.00
2019-01-11T05:59:04.362Z,0.00
2019-01-11T06:00:04.845Z,0.00
2019-01-11T06:01:03.603Z,0.00
2019-01-11T06:02:05.203Z,0.00
2019-01-11T06:03:05.095Z,0.00
2019-01-11T06:04:04.634Z,0.00
2019-01-11T06:05:05.131Z,0.00
2019-01-11T06:06:05.118Z,0.00
2019-01-11T06:07:05.075Z,0.00
2019-01-11T06:08:04.637Z,0.00
2019-01-11T06:09:04.936Z,0.00
2019-01-11T06:10:04.367Z,0.00
2019-01-11T06:11:04.825Z,0.00
2019-01-11T06:12:04.863Z,0.00
2019-01-11T06:13:04.220Z,0.00
2019-01-11T06:14:04.876Z,0.00
2019-01-11T06:15:04.662Z,0.00
2019-01-11T06:16:03.585Z,0.00
2019-01-11T06:17:04.045Z,0.00
2019-01-11T06:18:03.463Z,0.00
2019-01-11T06:19:04.437Z,0.00
2019-01-11T06:20:04.618Z,0.00
2019-01-11T06:21:04.499Z,0.00
2019-01-11T06:22:04.143Z,0.00
2019-01-11T06:23:04.098Z,0.00
2019-01-11T06:24:04.318Z,0.00
2019-01-11T06:25:04.320Z,0.00
2019-01-11T06:26:04.395Z,0.00
2019-01-11T06:27:02.870Z,0.00
2019-01-11T06:28:04.144Z,0.00
2019-01-11T06:29:04.073Z,0.00
2019-01-11T06:30:04.013Z,0.00
2019-01-11T06:31:03.129Z,0.00
2019-01-11T06:32:03.887Z,0.00
2019-01-11T06:33:03.617Z,0.00
2019-01-11T06:34:05.069Z,0.00
2019-01-11T06:35:03.909Z,0.00
2019-01-11T06:36:03.808Z,0.00
2019-01-11T06:37:03.140Z,0.00
2019-01-11T06:38:03.614Z,0.00
2019-01-11T06:39:03.495Z,4.00
2019-01-11T06:40:03.509Z,4.00
2019-01-11T06:41:03.493Z,0.00
2019-01-11T06:42:03.437Z,4.00
2019-01-11T06:43:03.564Z,4.00
2019-01-11T06:44:03.412Z,4.00
2019-01-11T06:45:03.291Z,4.00
2019-01-11T06:46:03.330Z,4.00
2019-01-11T06:47:03.281Z,8.00
2019-01-11T06:48:03.202Z,8.00
2019-01-11T06:49:03.108Z,12.00
2019-01-11T06:50:03.111Z,12.00
2019-01-11T06:51:02.470Z,12.00
2019-01-11T06:52:02.402Z,16.00
2019-01-11T06:53:02.373Z,20.00
2019-01-11T06:54:03.026Z,20.00
2019-01-11T06:55:02.861Z,24.00
2019-01-11T06:56:02.856Z,24.00
2019-01-11T06:57:02.819Z,28.00
2019-01-11T06:58:02.817Z,32.00
2019-01-11T06:59:02.603Z,36.00
2019-01-11T07:00:02.941Z,44.00
2019-01-11T07:01:02.609Z,48.00
2019-01-11T07:02:02.370Z,52.00
2019-01-11T07:03:01.920Z,56.00
2019-01-11T07:04:02.433Z,64.00
2019-01-11T07:05:01.292Z,72.00
2019-01-11T07:06:02.391Z,76.00
2019-01-11T07:07:02.558Z,88.00
2019-01-11T07:08:02.336Z,96.00
2019-01-11T07:09:02.341Z,104.00
2019-01-11T07:10:01.649Z,108.00
2019-01-11T07:11:02.100Z,120.00
2019-01-11T07:12:02.080Z,132.00
2019-01-11T07:13:02.031Z,140.00
2019-01-11T07:14:00.877Z,152.00
2019-01-11T07:15:01.898Z,168.00
2019-01-11T07:16:02.099Z,180.00
2019-01-11T07:17:01.801Z,200.00
2019-01-11T07:18:01.884Z,212.00
2019-01-11T07:19:01.769Z,224.00
2019-01-11T07:20:05.369Z,240.00
2019-01-11T07:21:01.824Z,260.00
2019-01-11T07:22:00.248Z,276.00
2019-01-11T07:23:00.979Z,296.00
2019-01-11T07:24:01.148Z,316.00
2019-01-11T07:24:59.690Z,348.00
2019-01-11T07:26:01.292Z,372.00
2019-01-11T07:26:59.258Z,388.00
2019-01-11T07:27:59.171Z,408.00
2019-01-11T07:28:59.137Z,428.00
2019-01-11T07:29:59.085Z,440.00
2019-01-11T07:30:59.055Z,456.00
2019-01-11T07:31:59.052Z,472.00
2019-01-11T07:32:58.970Z,480.00
2019-01-11T07:33:58.896Z,508.00
2019-01-11T07:34:58.869Z,548.00
2019-01-11T07:35:58.825Z,592.00
2019-01-11T07:36:58.767Z,620.00
2019-01-11T07:37:58.719Z,652.00
2019-01-11T07:38:58.669Z,680.00
2019-01-11T07:39:58.615Z,712.00
2019-01-11T07:40:58.574Z,756.00
2019-01-11T07:41:58.537Z,804.00
2019-01-11T07:42:58.490Z,844.00
2019-01-11T07:43:58.440Z,876.00
2019-01-11T07:44:58.394Z,892.00
2019-01-11T07:45:58.388Z,896.00
2019-01-11T07:46:58.333Z,880.00
2019-01-11T07:47:58.254Z,852.00
2019-01-11T07:48:58.242Z,840.00
2019-01-11T07:49:58.176Z,828.00
2019-01-11T07:50:58.127Z,824.00
2019-01-11T07:51:58.066Z,820.00
2019-01-11T07:52:58.036Z,824.00
2019-01-11T07:53:57.981Z,848.00
2019-01-11T07:54:57.921Z,864.00
2019-01-11T07:55:57.893Z,888.00
2019-01-11T07:56:57.823Z,924.00
2019-01-11T07:57:57.806Z,960.00
2019-01-11T07:58:57.755Z,1024.00
2019-01-11T07:59:57.710Z,1080.00
2019-01-11T08:00:57.667Z,1128.00
2019-01-11T08:01:57.611Z,1180.00
2019-01-11T08:02:57.579Z,1216.00
2019-01-11T08:03:57.525Z,1236.00
2019-01-11T08:04:57.471Z,1276.00
2019-01-11T08:05:57.458Z,1288.00
2019-01-11T08:06:57.379Z,1288.00
2019-01-11T08:07:57.349Z,1308.00
2019-01-11T08:08:57.305Z,1340.00
2019-01-11T08:09:57.264Z,1380.00
2019-01-11T08:10:57.194Z,1412.00
2019-01-11T08:11:57.185Z,1484.00
2019-01-11T08:12:57.102Z,1616.00
2019-01-11T08:13:57.082Z,1784.00
2019-01-11T08:14:57.024Z,1964.00
2019-01-11T08:15:56.962Z,2092.00
2019-01-11T08:16:56.931Z,2112.00
2019-01-11T08:17:56.876Z,2040.00
2019-01-11T08:18:56.827Z,1924.00
2019-01-11T08:19:56.794Z,1864.00
2019-01-11T08:20:56.746Z,1808.00
2019-01-11T08:21:56.695Z,1792.00
2019-01-11T08:22:56.628Z,1788.00
2019-01-11T08:23:56.593Z,1772.00
2019-01-11T08:24:56.611Z,1800.00
2019-01-11T08:25:56.509Z,1880.00
2019-01-11T08:26:56.450Z,1980.00
2019-01-11T08:27:56.409Z,2204.00
2019-01-11T08:28:56.361Z,2420.00
2019-01-11T08:29:56.331Z,2544.00
2019-01-11T08:30:56.279Z,2580.00
2019-01-11T08:31:56.212Z,2580.00
2019-01-11T08:32:56.178Z,2612.00
2019-01-11T08:33:56.181Z,2684.00
2019-01-11T08:34:56.063Z,2692.00
2019-01-11T08:35:56.036Z,2760.00
2019-01-11T08:36:56.004Z,2892.00
2019-01-11T08:37:55.943Z,2980.00
2019-01-11T08:38:57.765Z,3156.00
2019-01-11T08:39:55.847Z,3264.00
2019-01-11T08:40:55.822Z,3280.00
2019-01-11T08:41:55.794Z,3292.00
2019-01-11T08:42:55.702Z,3352.00
2019-01-11T08:43:55.687Z,3416.00
2019-01-11T08:44:55.623Z,3420.00
2019-01-11T08:45:55.585Z,3500.00
2019-01-11T08:46:55.529Z,3684.00
2019-01-11T08:47:55.475Z,3884.00
2019-01-11T08:48:55.430Z,4068.00
2019-01-11T08:49:55.374Z,4268.00
2019-01-11T08:50:55.347Z,4296.00
2019-01-11T08:51:55.322Z,4356.00
2019-01-11T08:52:55.251Z,4320.00
2019-01-11T08:53:55.207Z,4272.00
2019-01-11T08:54:55.164Z,4204.00
2019-01-11T08:55:55.114Z,4056.00
2019-01-11T08:56:55.059Z,4000.00
2019-01-11T08:57:55.024Z,3952.00
2019-01-11T08:58:55.037Z,3924.00
2019-01-11T08:59:54.924Z,3920.00
2019-01-11T09:00:54.878Z,3936.00
2019-01-11T09:01:54.828Z,3904.00
2019-01-11T09:02:54.816Z,3768.00
2019-01-11T09:03:54.752Z,3644.00
2019-01-11T09:04:54.707Z,3496.00
2019-01-11T09:05:54.662Z,3380.00
2019-01-11T09:06:54.638Z,3340.00
2019-01-11T09:07:54.568Z,3368.00
2019-01-11T09:08:54.522Z,3396.00
2019-01-11T09:09:54.463Z,3480.00
2019-01-11T09:10:54.425Z,3600.00
2019-01-11T09:11:54.389Z,3664.00
2019-01-11T09:12:54.339Z,3720.00
2019-01-11T09:13:54.286Z,3848.00
2019-01-11T09:14:54.244Z,3956.00
2019-01-11T09:15:54.187Z,3988.00
2019-01-11T09:16:54.149Z,4060.00
2019-01-11T09:17:54.099Z,4192.00
2019-01-11T09:18:54.104Z,4292.00
2019-01-11T09:19:54.029Z,4348.00
2019-01-11T09:20:53.969Z,4396.00
2019-01-11T09:21:53.928Z,4556.00
2019-01-11T09:22:53.891Z,4628.00
2019-01-11T09:23:53.842Z,4640.00
2019-01-11T09:24:53.789Z,4628.00
2019-01-11T09:25:53.742Z,4744.00
2019-01-11T09:26:53.706Z,4920.00
2019-01-11T09:27:53.651Z,4944.00
2019-01-11T09:28:53.610Z,4896.00
2019-01-11T09:29:53.551Z,4832.00
2019-01-11T09:30:53.520Z,4836.00
2019-01-11T09:31:53.502Z,4940.00
2019-01-11T09:32:53.540Z,4884.00
2019-01-11T09:33:53.358Z,4800.00
2019-01-11T09:34:53.320Z,4680.00
2019-01-11T09:35:53.313Z,4560.00
2019-01-11T09:36:53.252Z,4576.00
2019-01-11T09:37:53.204Z,4520.00
2019-01-11T09:38:53.147Z,4400.00
2019-01-11T09:39:53.107Z,4220.00
2019-01-11T09:40:53.075Z,4108.00
2019-01-11T09:41:53.033Z,4108.00
2019-01-11T09:42:52.961Z,4076.00
2019-01-11T09:43:52.917Z,3980.00
2019-01-11T09:44:52.886Z,4004.00
2019-01-11T09:45:52.819Z,3932.00
2019-01-11T09:46:52.808Z,3828.00
2019-01-11T09:47:52.735Z,3828.00
2019-01-11T09:48:52.697Z,3924.00
2019-01-11T09:49:52.737Z,4212.00
2019-01-11T09:50:52.606Z,4536.00
2019-01-11T09:51:52.611Z,4784.00
2019-01-11T09:52:52.514Z,4812.00
2019-01-11T09:53:52.460Z,5008.00
2019-01-11T09:54:52.553Z,5188.00
2019-01-11T09:55:52.436Z,5208.00
2019-01-11T09:56:52.392Z,5096.00
2019-01-11T09:57:52.274Z,4804.00
2019-01-11T09:58:52.244Z,4544.00
2019-01-11T09:59:52.182Z,4504.00
2019-01-11T10:00:59.104Z,4500.00
2019-01-11T10:01:52.097Z,4516.00
2019-01-11T10:02:52.055Z,4528.00
2019-01-11T10:03:52.002Z,4540.00
2019-01-11T10:04:52.010Z,4468.00
2019-01-11T10:05:51.921Z,4368.00
2019-01-11T10:06:51.873Z,4224.00
2019-01-11T10:07:51.833Z,4120.00
2019-01-11T10:08:51.795Z,4316.00
2019-01-11T10:09:51.744Z,4444.00
2019-01-11T10:10:51.695Z,4464.00
2019-01-11T10:11:51.655Z,4432.00
2019-01-11T10:12:51.612Z,4244.00
2019-01-11T10:13:51.570Z,4276.00
2019-01-11T10:14:51.527Z,4172.00
2019-01-11T10:15:51.479Z,4184.00
2019-01-11T10:16:51.407Z,4180.00
2019-01-11T10:17:51.372Z,4320.00
2019-01-11T10:18:51.317Z,4696.00
2019-01-11T10:19:51.293Z,5204.00
2019-01-11T10:20:51.230Z,5688.00
2019-01-11T10:21:52.529Z,5932.00
2019-01-11T10:22:51.165Z,6092.00
2019-01-11T10:23:51.083Z,6212.00
2019-01-11T10:24:51.067Z,5892.00
2019-01-11T10:25:51.034Z,5756.00
2019-01-11T10:26:50.963Z,5876.00
2019-01-11T10:27:50.929Z,5720.00
2019-01-11T10:28:50.865Z,5280.00
2019-01-11T10:29:50.835Z,4896.00
2019-01-11T10:30:50.773Z,4624.00
2019-01-11T10:31:50.754Z,4376.00
2019-01-11T10:32:50.718Z,4136.00
2019-01-11T10:33:50.662Z,3916.00
2019-01-11T10:34:50.613Z,3728.00
2019-01-11T10:35:50.556Z,3672.00
2019-01-11T10:36:50.522Z,3696.00
2019-01-11T10:37:50.488Z,3620.00
2019-01-11T10:38:50.424Z,3484.00
2019-01-11T10:39:50.389Z,3460.00
2019-01-11T10:40:50.333Z,3616.00
2019-01-11T10:41:50.269Z,3852.00
2019-01-11T10:42:50.237Z,4060.00
2019-01-11T10:43:50.247Z,4180.00
2019-01-11T10:44:50.170Z,4300.00
2019-01-11T10:45:50.095Z,4408.00
2019-01-11T10:46:50.047Z,4348.00
2019-01-11T10:47:50.012Z,4152.00
2019-01-11T10:48:49.962Z,3932.00
2019-01-11T10:49:49.939Z,3812.00
2019-01-11T10:50:49.898Z,3724.00
2019-01-11T10:51:49.850Z,3672.00
2019-01-11T10:52:49.782Z,3640.00
2019-01-11T10:53:49.768Z,3568.00
2019-01-11T10:54:49.689Z,3512.00
2019-01-11T10:55:49.650Z,3516.00
2019-01-11T10:56:49.611Z,3604.00
2019-01-11T10:57:49.560Z,3720.00
2019-01-11T10:58:49.522Z,3832.00
2019-01-11T10:59:49.468Z,3748.00
2019-01-11T11:00:49.418Z,3676.00
2019-01-11T11:01:49.358Z,3612.00
2019-01-11T11:02:49.334Z,3476.00
2019-01-11T11:03:49.278Z,3464.00
2019-01-11T11:04:49.242Z,3500.00
2019-01-11T11:05:49.197Z,3556.00
2019-01-11T11:06:49.196Z,3640.00
2019-01-11T11:07:49.109Z,3860.00
2019-01-11T11:08:49.064Z,4116.00
2019-01-11T11:09:49.004Z,4500.00
2019-01-11T11:10:49.001Z,4932.00
2019-01-11T11:11:48.938Z,5224.00
2019-01-11T11:12:48.953Z,5404.00
2019-01-11T11:13:48.851Z,5468.00
2019-01-11T11:14:48.786Z,5636.00
2019-01-11T11:15:48.730Z,5644.00
2019-01-11T11:16:48.694Z,5512.00
2019-01-11T11:17:48.658Z,5396.00
2019-01-11T11:18:48.683Z,5132.00
2019-01-11T11:19:48.586Z,5020.00
2019-01-11T11:20:48.562Z,5016.00
2019-01-11T11:21:48.470Z,4972.00
2019-01-11T11:22:48.439Z,4932.00
2019-01-11T11:23:48.457Z,5008.00
2019-01-11T11:24:48.334Z,5084.00
2019-01-11T11:25:48.346Z,5240.00
2019-01-11T11:26:48.245Z,5384.00
2019-01-11T11:27:48.200Z,5540.00
2019-01-11T11:28:48.170Z,5600.00
2019-01-11T11:29:48.105Z,5516.00
2019-01-11T11:30:50.985Z,5456.00
2019-01-11T11:31:48.012Z,5348.00
2019-01-11T11:32:47.968Z,5312.00
2019-01-11T11:33:47.935Z,5380.00
2019-01-11T11:34:47.873Z,5452.00
2019-01-11T11:35:47.833Z,5520.00
2019-01-11T11:36:47.858Z,5464.00
2019-01-11T11:37:47.771Z,5364.00
2019-01-11T11:38:47.727Z,5300.00
2019-01-11T11:39:47.663Z,5380.00
2019-01-11T11:40:47.620Z,5548.00
2019-01-11T11:41:47.574Z,5888.00
2019-01-11T11:42:47.545Z,6216.00
2019-01-11T11:43:47.476Z,6436.00
2019-01-11T11:44:47.421Z,6468.00
2019-01-11T11:45:47.402Z,6360.00
2019-01-11T11:46:47.367Z,6140.00
2019-01-11T11:47:47.299Z,5752.00
2019-01-11T11:48:47.272Z,5316.00
2019-01-11T11:49:47.264Z,5100.00
2019-01-11T11:50:47.168Z,5000.00
2019-01-11T11:51:47.130Z,4840.00
2019-01-11T11:52:47.080Z,4616.00
2019-01-11T11:53:47.026Z,4488.00
2019-01-11T11:54:46.991Z,4380.00
2019-01-11T11:55:46.937Z,4300.00
2019-01-11T11:56:46.890Z,4188.00
2019-01-11T11:57:46.858Z,4072.00
2019-01-11T11:58:46.790Z,4044.00
2019-01-11T11:59:46.773Z,4092.00
2019-01-11T12:00:46.721Z,4080.00
2019-01-11T12:01:46.859Z,3904.00
2019-01-11T12:02:46.635Z,3720.00
2019-01-11T12:03:46.591Z,3540.00
2019-01-11T12:04:46.529Z,3372.00
2019-01-11T12:05:46.515Z,3276.00
2019-01-11T12:06:46.440Z,3356.00
2019-01-11T12:07:46.445Z,3348.00
2019-01-11T12:08:46.365Z,3380.00
2019-01-11T12:09:46.307Z,3612.00
2019-01-11T12:10:46.278Z,3760.00
2019-01-11T12:11:46.236Z,3892.00
2019-01-11T12:12:46.208Z,3952.00
2019-01-11T12:13:46.133Z,3972.00
2019-01-11T12:14:46.103Z,3984.00
2019-01-11T12:15:46.039Z,4004.00
2019-01-11T12:16:46.015Z,4172.00
2019-01-11T12:17:45.980Z,4324.00
2019-01-11T12:18:45.930Z,4588.00
2019-01-11T12:19:45.877Z,4648.00
2019-01-11T12:20:45.835Z,4624.00
2019-01-11T12:21:47.899Z,4500.00
2019-01-11T12:22:45.744Z,4480.00
2019-01-11T12:23:45.686Z,4460.00
2019-01-11T12:24:45.630Z,4424.00
2019-01-11T12:25:47.031Z,4488.00
2019-01-11T12:26:45.670Z,4544.00
2019-01-11T12:27:45.551Z,4376.00
2019-01-11T12:28:45.560Z,4148.00
2019-01-11T12:29:45.403Z,3952.00
2019-01-11T12:30:45.385Z,3980.00
2019-01-11T12:31:45.355Z,4036.00
2019-01-11T12:32:45.289Z,4032.00
2019-01-11T12:33:45.334Z,3916.00
2019-01-11T12:34:45.198Z,3804.00
2019-01-11T12:35:45.137Z,3764.00
2019-01-11T12:36:45.129Z,3788.00
2019-01-11T12:37:45.056Z,3932.00
2019-01-11T12:38:45.009Z,3980.00
2019-01-11T12:39:44.969Z,3816.00
2019-01-11T12:40:44.970Z,3692.00
2019-01-11T12:41:44.882Z,3736.00
2019-01-11T12:42:44.838Z,3808.00
2019-01-11T12:43:44.781Z,3872.00
2019-01-11T12:44:44.738Z,3816.00
2019-01-11T12:45:44.744Z,3680.00
2019-01-11T12:46:44.647Z,3640.00
2019-01-11T12:47:44.603Z,3836.00
2019-01-11T12:48:44.560Z,4116.00
2019-01-11T12:49:44.518Z,4452.00
2019-01-11T12:50:44.552Z,4840.00
2019-01-11T12:51:44.423Z,5096.00
2019-01-11T12:52:44.406Z,5216.00
2019-01-11T12:53:44.335Z,5352.00
2019-01-11T12:54:44.321Z,5676.00
2019-01-11T12:55:44.253Z,6268.00
2019-01-11T12:56:44.252Z,6808.00
2019-01-11T12:57:44.185Z,6708.00
2019-01-11T12:58:44.112Z,6364.00
2019-01-11T12:59:44.065Z,5944.00
2019-01-11T13:00:44.033Z,5324.00
2019-01-11T13:01:44.025Z,4720.00
2019-01-11T13:02:43.933Z,4344.00
2019-01-11T13:03:43.920Z,4036.00
2019-01-11T13:04:43.858Z,3812.00
2019-01-11T13:05:43.836Z,3488.00
2019-01-11T13:06:43.770Z,3288.00
2019-01-11T13:07:43.728Z,3132.00
2019-01-11T13:08:43.671Z,3088.00
2019-01-11T13:09:43.628Z,3072.00
2019-01-11T13:10:43.574Z,3220.00
2019-01-11T13:11:43.545Z,3392.00
2019-01-11T13:12:43.496Z,3480.00
2019-01-11T13:13:44.196Z,3484.00
2019-01-11T13:14:43.402Z,3312.00
2019-01-11T13:15:43.359Z,2992.00
2019-01-11T13:16:43.317Z,2792.00
2019-01-11T13:17:43.270Z,2632.00
2019-01-11T13:18:43.227Z,2544.00
2019-01-11T13:19:43.172Z,2504.00
2019-01-11T13:20:43.143Z,2524.00
2019-01-11T13:21:43.104Z,2588.00
2019-01-11T13:22:43.045Z,2568.00
2019-01-11T13:23:43.006Z,2568.00
2019-01-11T13:24:42.959Z,2616.00
2019-01-11T13:25:42.927Z,2676.00
2019-01-11T13:26:42.878Z,2828.00
2019-01-11T13:27:42.826Z,3056.00
2019-01-11T13:28:42.788Z,3316.00
2019-01-11T13:29:42.727Z,3516.00
2019-01-11T13:30:42.682Z,3548.00
2019-01-11T13:31:42.692Z,3644.00
2019-01-11T13:32:42.598Z,3592.00
2019-01-11T13:33:42.552Z,3580.00
2019-01-11T13:34:42.513Z,3332.00
2019-01-11T13:35:42.456Z,2936.00
2019-01-11T13:36:42.423Z,2764.00
2019-01-11T13:37:42.371Z,2580.00
2019-01-11T13:38:42.329Z,2412.00
2019-01-11T13:39:42.326Z,2308.00
2019-01-11T13:40:42.226Z,2264.00
2019-01-11T13:41:42.207Z,2172.00
2019-01-11T13:42:42.140Z,2124.00
2019-01-11T13:43:42.144Z,2252.00
2019-01-11T13:44:42.048Z,2404.00
2019-01-11T13:45:42.014Z,2528.00
2019-01-11T13:46:41.971Z,2616.00
2019-01-11T13:47:41.926Z,2672.00
2019-01-11T13:48:41.874Z,2620.00
2019-01-11T13:49:41.827Z,2484.00
2019-01-11T13:50:41.822Z,2376.00
2019-01-11T13:51:41.736Z,2396.00
2019-01-11T13:52:41.693Z,2316.00
2019-01-11T13:53:41.685Z,2248.00
2019-01-11T13:54:41.625Z,2180.00
2019-01-11T13:55:41.582Z,2156.00
2019-01-11T13:56:41.525Z,2188.00
2019-01-11T13:57:41.475Z,2196.00
2019-01-11T13:58:41.435Z,2188.00
2019-01-11T13:59:41.702Z,2260.00
2019-01-11T14:00:41.335Z,2392.00
2019-01-11T14:01:41.315Z,2368.00
2019-01-11T14:02:41.274Z,2312.00
2019-01-11T14:03:41.208Z,2272.00